RYY weather

Cobb County-Mc Collum Field
Atlanta, Georgia, United States

Public forecast

Using degrees Fahrenheit for public forecast. Weather courtesy of forecast.io.

METAR (pilot weather report)

Retrieved 2019/04/25 22:48 UTC (44 minutes ago):

KRYY 252248Z 20006KT 10SM CLR 22/14 A2986 RMK AO2 SLP834 T02220144

TAF (pilot weather forecast)

Retrieved 2019/04/25 18:30 UTC (5 hours ago):

TAF KRYY 251728Z 2518/2618 19008KT P6SM SCT060 BKN120 FM260100 17008KT 4SM -SHRA OVC050 FM260500 18010KT 6SM -SHRA OVC025 FM261000 23009KT P6SM BKN010 FM261200 26010KT P6SM BKN008 FM261400 29016G24KT P6SM SCT008 FM261600 31020G30KT P6SM SCT040